Terminal Aerodrome Forecast
Issued by NWS

Home | Current Version | Previous Version | Text Only | Print | Product List | Glossary On
Versions: 1 2 3 4 5 6 7 8 9 10 11 12 13 14 15 16 17 18 19 20 21 22 23 24 25 26 27 28 29 30
000
FTUS41 KRNK 022327
TAFBCB
TAF
KBCB 022327Z 0300/0324 31003KT P6SM FEW040 BKN250
     FM030600 00000KT 4SM BR SCT250
      TEMPO 0309/0311 1SM BR
     FM031230 29004KT P6SM SCT040
     FM031900 33005KT P6SM BKN050=

USA.gov is the U.S. government's official web portal to all federal, state and local government web resources and services.